sensor_id;sensor_type;location;lat;lon;timestamp;P1;durP1;ratioP1;P2;durP2;ratioP2
38811;SDS011;24553;51.640;-0.752;2022-11-20T00:02:07;8.23;;;4.50;;
38811;SDS011;24553;51.640;-0.752;2022-11-20T00:04:33;14.98;;;4.72;;
38811;SDS011;24553;51.640;-0.752;2022-11-20T00:06:58;11.15;;;5.13;;
38811;SDS011;24553;51.640;-0.752;2022-11-20T00:09:23;12.98;;;5.28;;
38811;SDS011;24553;51.640;-0.752;2022-11-20T00:11:49;8.82;;;5.13;;
38811;SDS011;24553;51.640;-0.752;2022-11-20T00:14:14;14.40;;;4.40;;
38811;SDS011;24553;51.640;-0.752;2022-11-20T00:16:39;10.48;;;3.88;;
38811;SDS011;24553;51.640;-0.752;2022-11-20T00:19:05;8.90;;;5.35;;
38811;SDS011;24553;51.640;-0.752;2022-11-20T00:21:31;19.23;;;5.60;;
38811;SDS011;24553;51.640;-0.752;2022-11-20T00:23:56;18.23;;;5.50;;
38811;SDS011;24553;51.640;-0.752;2022-11-20T00:26:22;10.65;;;5.00;;
38811;SDS011;24553;51.640;-0.752;2022-11-20T00:28:50;11.13;;;5.18;;
38811;SDS011;24553;51.640;-0.752;2022-11-20T00:31:18;12.95;;;4.50;;
38811;SDS011;24553;51.640;-0.752;2022-11-20T00:33:44;11.15;;;4.30;;
38811;SDS011;24553;51.640;-0.752;2022-11-20T00:36:10;12.02;;;5.03;;
38811;SDS011;24553;51.640;-0.752;2022-11-20T00:38:38;16.63;;;5.07;;
38811;SDS011;24553;51.640;-0.752;2022-11-20T00:41:04;11.55;;;4.25;;
38811;SDS011;24553;51.640;-0.752;2022-11-20T00:43:31;12.25;;;5.35;;
38811;SDS011;24553;51.640;-0.752;2022-11-20T00:48:24;6.35;;;3.47;;
38811;SDS011;24553;51.640;-0.752;2022-11-20T00:50:49;7.63;;;4.47;;
38811;SDS011;24553;51.640;-0.752;2022-11-20T00:53:15;7.35;;;3.75;;
38811;SDS011;24553;51.640;-0.752;2022-11-20T00:55:40;12.63;;;4.00;;
38811;SDS011;24553;51.640;-0.752;2022-11-20T00:58:05;8.60;;;4.00;;
38811;SDS011;24553;51.640;-0.752;2022-11-20T01:00:31;11.52;;;4.25;;
38811;SDS011;24553;51.640;-0.752;2022-11-20T01:02:56;11.57;;;5.57;;
38811;SDS011;24553;51.640;-0.752;2022-11-20T01:05:21;11.13;;;3.83;;
38811;SDS011;24553;51.640;-0.752;2022-11-20T01:07:47;10.10;;;4.95;;
38811;SDS011;24553;51.640;-0.752;2022-11-20T01:10:12;15.00;;;5.00;;
38811;SDS011;24553;51.640;-0.752;2022-11-20T01:12:37;9.68;;;3.90;;
38811;SDS011;24553;51.640;-0.752;2022-11-20T01:15:03;7.80;;;4.75;;
38811;SDS011;24553;51.640;-0.752;2022-11-20T01:17:28;7.25;;;3.97;;
38811;SDS011;24553;51.640;-0.752;2022-11-20T01:19:56;5.80;;;3.28;;
38811;SDS011;24553;51.640;-0.752;2022-11-20T01:22:21;6.97;;;4.38;;
38811;SDS011;24553;51.640;-0.752;2022-11-20T01:24:46;7.93;;;4.45;;
38811;SDS011;24553;51.640;-0.752;2022-11-20T01:27:12;6.68;;;3.92;;
38811;SDS011;24553;51.640;-0.752;2022-11-20T01:29:37;7.72;;;4.05;;
38811;SDS011;24553;51.640;-0.752;2022-11-20T01:32:02;13.73;;;3.72;;
38811;SDS011;24553;51.640;-0.752;2022-11-20T01:34:28;11.02;;;5.03;;
38811;SDS011;24553;51.640;-0.752;2022-11-20T01:36:53;10.52;;;4.15;;
38811;SDS011;24553;51.640;-0.752;2022-11-20T01:39:23;9.30;;;3.58;;
38811;SDS011;24553;51.640;-0.752;2022-11-20T01:41:51;8.82;;;3.60;;
38811;SDS011;24553;51.640;-0.752;2022-11-20T01:44:56;5.97;;;4.57;;
38811;SDS011;24553;51.640;-0.752;2022-11-20T01:50:06;9.77;;;2.95;;
38811;SDS011;24553;51.640;-0.752;2022-11-20T01:52:41;5.10;;;3.08;;
38811;SDS011;24553;51.640;-0.752;2022-11-20T01:55:12;6.05;;;4.07;;
38811;SDS011;24553;51.640;-0.752;2022-11-20T01:57:42;8.80;;;3.08;;
38811;SDS011;24553;51.640;-0.752;2022-11-20T02:00:11;6.40;;;2.75;;
38811;SDS011;24553;51.640;-0.752;2022-11-20T02:02:41;8.05;;;3.90;;
38811;SDS011;24553;51.640;-0.752;2022-11-20T02:05:22;9.82;;;3.00;;
38811;SDS011;24553;51.640;-0.752;2022-11-20T02:07:52;8.75;;;2.85;;
38811;SDS011;24553;51.640;-0.752;2022-11-20T02:10:19;5.57;;;3.17;;
38811;SDS011;24553;51.640;-0.752;2022-11-20T02:12:45;6.60;;;2.55;;
38811;SDS011;24553;51.640;-0.752;2022-11-20T02:15:29;5.22;;;2.67;;
38811;SDS011;24553;51.640;-0.752;2022-11-20T02:17:57;11.00;;;3.88;;
38811;SDS011;24553;51.640;-0.752;2022-11-20T02:20:22;4.72;;;2.67;;
38811;SDS011;24553;51.640;-0.752;2022-11-20T02:22:54;8.30;;;2.42;;
38811;SDS011;24553;51.640;-0.752;2022-11-20T02:25:20;5.45;;;2.50;;
38811;SDS011;24553;51.640;-0.752;2022-11-20T02:27:47;5.72;;;1.92;;
38811;SDS011;24553;51.640;-0.752;2022-11-20T02:30:12;5.05;;;2.95;;
38811;SDS011;24553;51.640;-0.752;2022-11-20T02:32:38;10.70;;;3.10;;
38811;SDS011;24553;51.640;-0.752;2022-11-20T02:35:35;6.28;;;2.60;;
38811;SDS011;24553;51.640;-0.752;2022-11-20T02:37:52;8.57;;;2.75;;
38811;SDS011;24553;51.640;-0.752;2022-11-20T02:40:19;4.13;;;2.92;;
38811;SDS011;24553;51.640;-0.752;2022-11-20T02:42:45;5.32;;;2.72;;
38811;SDS011;24553;51.640;-0.752;2022-11-20T02:45:10;7.93;;;2.75;;
38811;SDS011;24553;51.640;-0.752;2022-11-20T02:47:35;8.38;;;3.63;;
38811;SDS011;24553;51.640;-0.752;2022-11-20T02:50:01;7.88;;;4.15;;
38811;SDS011;24553;51.640;-0.752;2022-11-20T02:52:26;5.78;;;2.05;;
38811;SDS011;24553;51.640;-0.752;2022-11-20T02:54:52;10.30;;;3.80;;
38811;SDS011;24553;51.640;-0.752;2022-11-20T02:57:18;4.18;;;2.83;;
38811;SDS011;24553;51.640;-0.752;2022-11-20T02:59:43;8.45;;;2.25;;
38811;SDS011;24553;51.640;-0.752;2022-11-20T03:02:08;3.25;;;1.73;;
38811;SDS011;24553;51.640;-0.752;2022-11-20T03:04:34;5.00;;;2.38;;
38811;SDS011;24553;51.640;-0.752;2022-11-20T03:06:59;10.43;;;3.72;;
38811;SDS011;24553;51.640;-0.752;2022-11-20T03:09:24;5.60;;;2.90;;
38811;SDS011;24553;51.640;-0.752;2022-11-20T03:11:50;5.97;;;3.45;;
38811;SDS011;24553;51.640;-0.752;2022-11-20T03:14:16;3.47;;;1.85;;
38811;SDS011;24553;51.640;-0.752;2022-11-20T03:16:41;7.10;;;2.72;;
38811;SDS011;24553;51.640;-0.752;2022-11-20T03:19:07;4.53;;;2.75;;
38811;SDS011;24553;51.640;-0.752;2022-11-20T03:21:32;6.18;;;2.00;;
38811;SDS011;24553;51.640;-0.752;2022-11-20T03:23:58;4.00;;;2.08;;
38811;SDS011;24553;51.640;-0.752;2022-11-20T03:26:24;9.68;;;2.95;;
38811;SDS011;24553;51.640;-0.752;2022-11-20T03:28:55;4.93;;;2.13;;
38811;SDS011;24553;51.640;-0.752;2022-11-20T03:31:25;4.70;;;1.73;;
38811;SDS011;24553;51.640;-0.752;2022-11-20T03:33:53;5.30;;;2.57;;
38811;SDS011;24553;51.640;-0.752;2022-11-20T03:36:19;12.60;;;2.90;;
38811;SDS011;24553;51.640;-0.752;2022-11-20T03:38:45;5.45;;;2.75;;
38811;SDS011;24553;51.640;-0.752;2022-11-20T03:41:12;9.80;;;2.20;;
38811;SDS011;24553;51.640;-0.752;2022-11-20T03:43:39;3.35;;;1.98;;
38811;SDS011;24553;51.640;-0.752;2022-11-20T03:46:05;5.72;;;2.85;;
38811;SDS011;24553;51.640;-0.752;2022-11-20T03:48:32;6.85;;;3.03;;
38811;SDS011;24553;51.640;-0.752;2022-11-20T03:53:56;2.03;;;1.90;;
38811;SDS011;24553;51.640;-0.752;2022-11-20T03:56:28;6.68;;;2.30;;
38811;SDS011;24553;51.640;-0.752;2022-11-20T03:58:55;5.63;;;2.28;;
38811;SDS011;24553;51.640;-0.752;2022-11-20T04:01:24;17.80;;;4.38;;
38811;SDS011;24553;51.640;-0.752;2022-11-20T04:03:52;8.95;;;2.17;;
38811;SDS011;24553;51.640;-0.752;2022-11-20T04:06:37;6.78;;;2.45;;
38811;SDS011;24553;51.640;-0.752;2022-11-20T04:09:03;7.35;;;2.72;;
38811;SDS011;24553;51.640;-0.752;2022-11-20T04:11:30;6.28;;;2.38;;
38811;SDS011;24553;51.640;-0.752;2022-11-20T04:13:59;5.22;;;2.22;;
38811;SDS011;24553;51.640;-0.752;2022-11-20T04:16:26;6.72;;;2.42;;
38811;SDS011;24553;51.640;-0.752;2022-11-20T04:18:55;5.30;;;2.22;;
38811;SDS011;24553;51.640;-0.752;2022-11-20T04:21:22;2.78;;;2.22;;
38811;SDS011;24553;51.640;-0.752;2022-11-20T04:23:48;2.55;;;1.25;;
38811;SDS011;24553;51.640;-0.752;2022-11-20T04:26:14;1.63;;;1.42;;
38811;SDS011;24553;51.640;-0.752;2022-11-20T04:28:40;10.60;;;3.33;;
38811;SDS011;24553;51.640;-0.752;2022-11-20T04:31:09;6.88;;;2.55;;
38811;SDS011;24553;51.640;-0.752;2022-11-20T04:33:40;6.25;;;2.83;;
38811;SDS011;24553;51.640;-0.752;2022-11-20T04:36:06;3.92;;;3.25;;
38811;SDS011;24553;51.640;-0.752;2022-11-20T04:38:36;7.90;;;3.10;;
38811;SDS011;24553;51.640;-0.752;2022-11-20T04:41:03;9.65;;;3.40;;
38811;SDS011;24553;51.640;-0.752;2022-11-20T04:43:30;1.70;;;1.13;;
38811;SDS011;24553;51.640;-0.752;2022-11-20T04:45:56;2.35;;;1.25;;
38811;SDS011;24553;51.640;-0.752;2022-11-20T04:48:23;6.63;;;1.67;;
38811;SDS011;24553;51.640;-0.752;2022-11-20T04:50:48;3.42;;;1.33;;
38811;SDS011;24553;51.640;-0.752;2022-11-20T04:53:14;3.03;;;1.35;;
38811;SDS011;24553;51.640;-0.752;2022-11-20T04:55:39;4.55;;;1.60;;
38811;SDS011;24553;51.640;-0.752;2022-11-20T04:58:05;3.25;;;1.77;;
38811;SDS011;24553;51.640;-0.752;2022-11-20T05:00:30;4.28;;;1.38;;
38811;SDS011;24553;51.640;-0.752;2022-11-20T05:02:55;2.67;;;1.40;;
38811;SDS011;24553;51.640;-0.752;2022-11-20T05:05:21;4.40;;;1.48;;
38811;SDS011;24553;51.640;-0.752;2022-11-20T05:07:46;1.60;;;1.50;;
38811;SDS011;24553;51.640;-0.752;2022-11-20T05:10:12;1.65;;;0.88;;
38811;SDS011;24553;51.640;-0.752;2022-11-20T05:12:37;5.78;;;1.77;;
38811;SDS011;24553;51.640;-0.752;2022-11-20T05:15:02;8.35;;;2.50;;
38811;SDS011;24553;51.640;-0.752;2022-11-20T05:17:28;6.63;;;2.63;;
38811;SDS011;24553;51.640;-0.752;2022-11-20T05:19:53;5.35;;;2.05;;
38811;SDS011;24553;51.640;-0.752;2022-11-20T05:22:18;3.60;;;0.80;;
38811;SDS011;24553;51.640;-0.752;2022-11-20T05:24:44;6.43;;;1.52;;
38811;SDS011;24553;51.640;-0.752;2022-11-20T05:27:09;4.88;;;1.50;;
38811;SDS011;24553;51.640;-0.752;2022-11-20T05:29:34;1.92;;;0.98;;
38811;SDS011;24553;51.640;-0.752;2022-11-20T05:32:00;5.03;;;1.73;;
38811;SDS011;24553;51.640;-0.752;2022-11-20T05:34:25;6.05;;;2.25;;
38811;SDS011;24553;51.640;-0.752;2022-11-20T05:36:50;5.63;;;1.15;;
38811;SDS011;24553;51.640;-0.752;2022-11-20T05:39:16;2.17;;;1.20;;
38811;SDS011;24553;51.640;-0.752;2022-11-20T05:41:41;6.47;;;1.77;;
38811;SDS011;24553;51.640;-0.752;2022-11-20T05:44:06;1.88;;;1.60;;
38811;SDS011;24553;51.640;-0.752;2022-11-20T05:46:32;1.60;;;1.02;;
38811;SDS011;24553;51.640;-0.752;2022-11-20T05:48:57;1.38;;;0.70;;
38811;SDS011;24553;51.640;-0.752;2022-11-20T05:51:23;1.23;;;0.80;;
38811;SDS011;24553;51.640;-0.752;2022-11-20T05:53:50;2.00;;;1.15;;
38811;SDS011;24553;51.640;-0.752;2022-11-20T05:56:16;6.38;;;2.17;;
38811;SDS011;24553;51.640;-0.752;2022-11-20T05:58:43;0.65;;;0.65;;
38811;SDS011;24553;51.640;-0.752;2022-11-20T06:01:13;5.50;;;1.38;;
38811;SDS011;24553;51.640;-0.752;2022-11-20T06:03:41;1.85;;;1.13;;
38811;SDS011;24553;51.640;-0.752;2022-11-20T06:06:08;0.90;;;0.60;;
38811;SDS011;24553;51.640;-0.752;2022-11-20T06:08:34;0.77;;;0.77;;
38811;SDS011;24553;51.640;-0.752;2022-11-20T06:11:06;1.50;;;0.80;;
38811;SDS011;24553;51.640;-0.752;2022-11-20T06:13:33;0.95;;;0.73;;
38811;SDS011;24553;51.640;-0.752;2022-11-20T06:15:59;1.55;;;1.20;;
38811;SDS011;24553;51.640;-0.752;2022-11-20T06:18:26;1.70;;;0.57;;
38811;SDS011;24553;51.640;-0.752;2022-11-20T06:21:06;1.08;;;0.82;;
38811;SDS011;24553;51.640;-0.752;2022-11-20T06:23:33;1.27;;;1.02;;
38811;SDS011;24553;51.640;-0.752;2022-11-20T06:26:03;2.78;;;1.52;;
38811;SDS011;24553;51.640;-0.752;2022-11-20T06:28:31;2.05;;;0.57;;
38811;SDS011;24553;51.640;-0.752;2022-11-20T06:30:56;2.15;;;0.95;;
38811;SDS011;24553;51.640;-0.752;2022-11-20T06:33:22;3.88;;;1.10;;
38811;SDS011;24553;51.640;-0.752;2022-11-20T06:35:48;2.63;;;1.58;;
38811;SDS011;24553;51.640;-0.752;2022-11-20T06:38:13;2.15;;;0.82;;
38811;SDS011;24553;51.640;-0.752;2022-11-20T06:40:42;1.02;;;0.75;;
38811;SDS011;24553;51.640;-0.752;2022-11-20T06:43:08;1.10;;;0.95;;
38811;SDS011;24553;51.640;-0.752;2022-11-20T06:45:34;3.53;;;1.73;;
38811;SDS011;24553;51.640;-0.752;2022-11-20T06:47:59;0.98;;;0.98;;
38811;SDS011;24553;51.640;-0.752;2022-11-20T06:50:25;1.20;;;1.00;;
38811;SDS011;24553;51.640;-0.752;2022-11-20T06:52:50;2.17;;;1.17;;
38811;SDS011;24553;51.640;-0.752;2022-11-20T06:55:15;2.63;;;1.20;;
38811;SDS011;24553;51.640;-0.752;2022-11-20T06:57:41;1.35;;;0.90;;
38811;SDS011;24553;51.640;-0.752;2022-11-20T07:00:06;1.77;;;1.40;;
38811;SDS011;24553;51.640;-0.752;2022-11-20T07:02:32;0.60;;;0.60;;
38811;SDS011;24553;51.640;-0.752;2022-11-20T07:04:57;2.08;;;1.25;;
38811;SDS011;24553;51.640;-0.752;2022-11-20T07:07:23;1.15;;;0.68;;
38811;SDS011;24553;51.640;-0.752;2022-11-20T07:09:48;2.97;;;1.33;;
38811;SDS011;24553;51.640;-0.752;2022-11-20T07:12:13;0.85;;;0.85;;
38811;SDS011;24553;51.640;-0.752;2022-11-20T07:14:39;3.70;;;0.85;;
38811;SDS011;24553;51.640;-0.752;2022-11-20T07:17:04;1.00;;;0.70;;
38811;SDS011;24553;51.640;-0.752;2022-11-20T07:19:29;1.77;;;0.63;;
38811;SDS011;24553;51.640;-0.752;2022-11-20T07:21:55;0.98;;;0.75;;
38811;SDS011;24553;51.640;-0.752;2022-11-20T07:24:20;14.13;;;2.35;;
38811;SDS011;24553;51.640;-0.752;2022-11-20T07:26:46;13.77;;;2.30;;
38811;SDS011;24553;51.640;-0.752;2022-11-20T07:29:14;1.20;;;0.63;;
38811;SDS011;24553;51.640;-0.752;2022-11-20T07:31:39;10.15;;;0.85;;
38811;SDS011;24553;51.640;-0.752;2022-11-20T07:34:05;2.40;;;1.00;;
38811;SDS011;24553;51.640;-0.752;2022-11-20T07:36:30;4.10;;;0.95;;
38811;SDS011;24553;51.640;-0.752;2022-11-20T07:38:55;17.92;;;1.50;;
38811;SDS011;24553;51.640;-0.752;2022-11-20T07:41:21;2.67;;;0.68;;
38811;SDS011;24553;51.640;-0.752;2022-11-20T07:43:46;11.55;;;3.03;;
38811;SDS011;24553;51.640;-0.752;2022-11-20T07:46:11;14.45;;;1.48;;
38811;SDS011;24553;51.640;-0.752;2022-11-20T07:48:37;28.65;;;3.95;;
38811;SDS011;24553;51.640;-0.752;2022-11-20T07:51:02;3.20;;;0.70;;
38811;SDS011;24553;51.640;-0.752;2022-11-20T07:53:27;13.82;;;0.95;;
38811;SDS011;24553;51.640;-0.752;2022-11-20T07:55:53;6.22;;;0.80;;
38811;SDS011;24553;51.640;-0.752;2022-11-20T07:58:19;31.35;;;3.30;;
38811;SDS011;24553;51.640;-0.752;2022-11-20T08:00:45;7.32;;;0.70;;
38811;SDS011;24553;51.640;-0.752;2022-11-20T08:03:11;4.20;;;0.75;;
38811;SDS011;24553;51.640;-0.752;2022-11-20T08:05:37;7.55;;;0.50;;
38811;SDS011;24553;51.640;-0.752;2022-11-20T08:08:02;3.65;;;1.05;;
38811;SDS011;24553;51.640;-0.752;2022-11-20T08:10:28;7.30;;;0.52;;
38811;SDS011;24553;51.640;-0.752;2022-11-20T08:12:53;4.53;;;0.30;;
38811;SDS011;24553;51.640;-0.752;2022-11-20T08:15:38;4.47;;;0.60;;
38811;SDS011;24553;51.640;-0.752;2022-11-20T08:18:09;5.78;;;0.60;;
38811;SDS011;24553;51.640;-0.752;2022-11-20T08:20:38;4.30;;;0.88;;
38811;SDS011;24553;51.640;-0.752;2022-11-20T08:23:04;3.30;;;0.20;;
38811;SDS011;24553;51.640;-0.752;2022-11-20T08:25:31;4.53;;;0.32;;
38811;SDS011;24553;51.640;-0.752;2022-11-20T08:27:58;0.65;;;0.40;;
38811;SDS011;24553;51.640;-0.752;2022-11-20T08:30:25;4.78;;;0.20;;
38811;SDS011;24553;51.640;-0.752;2022-11-20T08:32:51;4.47;;;0.55;;
38811;SDS011;24553;51.640;-0.752;2022-11-20T08:35:16;4.05;;;0.40;;
38811;SDS011;24553;51.640;-0.752;2022-11-20T08:37:45;5.82;;;0.90;;
38811;SDS011;24553;51.640;-0.752;2022-11-20T08:40:11;2.58;;;1.05;;
38811;SDS011;24553;51.640;-0.752;2022-11-20T08:42:36;6.72;;;0.55;;
38811;SDS011;24553;51.640;-0.752;2022-11-20T08:45:02;9.35;;;3.05;;
38811;SDS011;24553;51.640;-0.752;2022-11-20T08:47:28;2.90;;;0.73;;
38811;SDS011;24553;51.640;-0.752;2022-11-20T08:49:53;9.30;;;1.00;;
38811;SDS011;24553;51.640;-0.752;2022-11-20T08:52:19;3.58;;;0.93;;
38811;SDS011;24553;51.640;-0.752;2022-11-20T08:54:44;3.47;;;0.38;;
38811;SDS011;24553;51.640;-0.752;2022-11-20T08:57:09;3.88;;;1.33;;
38811;SDS011;24553;51.640;-0.752;2022-11-20T08:59:35;1.70;;;0.25;;
38811;SDS011;24553;51.640;-0.752;2022-11-20T09:02:00;2.65;;;0.40;;
38811;SDS011;24553;51.640;-0.752;2022-11-20T09:04:25;2.78;;;0.40;;
38811;SDS011;24553;51.640;-0.752;2022-11-20T09:06:51;8.68;;;1.75;;
38811;SDS011;24553;51.640;-0.752;2022-11-20T09:09:17;3.00;;;0.52;;
38811;SDS011;24553;51.640;-0.752;2022-11-20T09:11:43;8.63;;;1.90;;
38811;SDS011;24553;51.640;-0.752;2022-11-20T09:14:09;1.30;;;0.30;;
38811;SDS011;24553;51.640;-0.752;2022-11-20T09:16:34;13.02;;;1.20;;
38811;SDS011;24553;51.640;-0.752;2022-11-20T09:18:59;11.57;;;3.65;;
38811;SDS011;24553;51.640;-0.752;2022-11-20T09:21:25;10.77;;;2.25;;
38811;SDS011;24553;51.640;-0.752;2022-11-20T09:23:50;4.75;;;1.50;;
38811;SDS011;24553;51.640;-0.752;2022-11-20T09:26:15;13.23;;;3.25;;
38811;SDS011;24553;51.640;-0.752;2022-11-20T09:28:41;7.20;;;0.82;;
38811;SDS011;24553;51.640;-0.752;2022-11-20T09:31:07;4.07;;;1.42;;
38811;SDS011;24553;51.640;-0.752;2022-11-20T09:33:34;7.68;;;1.45;;
38811;SDS011;24553;51.640;-0.752;2022-11-20T09:36:00;2.42;;;0.77;;
38811;SDS011;24553;51.640;-0.752;2022-11-20T09:38:25;7.30;;;0.93;;
38811;SDS011;24553;51.640;-0.752;2022-11-20T09:40:53;12.93;;;0.90;;
38811;SDS011;24553;51.640;-0.752;2022-11-20T09:46:14;1.38;;;0.82;;
38811;SDS011;24553;51.640;-0.752;2022-11-20T09:54:10;5.05;;;0.70;;
38811;SDS011;24553;51.640;-0.752;2022-11-20T09:56:40;7.13;;;1.65;;
38811;SDS011;24553;51.640;-0.752;2022-11-20T10:07:41;6.18;;;2.15;;
38811;SDS011;24553;51.640;-0.752;2022-11-20T10:10:16;7.90;;;1.25;;
38811;SDS011;24553;51.640;-0.752;2022-11-20T10:12:51;6.30;;;0.85;;
38811;SDS011;24553;51.640;-0.752;2022-11-20T10:26:26;7.63;;;1.40;;
38811;SDS011;24553;51.640;-0.752;2022-11-20T10:29:01;11.05;;;3.30;;
38811;SDS011;24553;51.640;-0.752;2022-11-20T10:38:39;6.60;;;0.90;;
38811;SDS011;24553;51.640;-0.752;2022-11-20T10:41:08;7.30;;;2.47;;
38811;SDS011;24553;51.640;-0.752;2022-11-20T10:44:14;8.40;;;0.80;;
38811;SDS011;24553;51.640;-0.752;2022-11-20T10:47:00;7.05;;;1.42;;
38811;SDS011;24553;51.640;-0.752;2022-11-20T10:49:25;9.00;;;1.98;;
38811;SDS011;24553;51.640;-0.752;2022-11-20T11:00:23;5.95;;;0.75;;
38811;SDS011;24553;51.640;-0.752;2022-11-20T11:07:46;7.63;;;1.38;;
38811;SDS011;24553;51.640;-0.752;2022-11-20T11:12:43;14.23;;;2.35;;
38811;SDS011;24553;51.640;-0.752;2022-11-20T11:15:12;7.20;;;1.60;;
38811;SDS011;24553;51.640;-0.752;2022-11-20T11:17:49;13.00;;;1.27;;
38811;SDS011;24553;51.640;-0.752;2022-11-20T11:20:18;12.43;;;1.67;;
38811;SDS011;24553;51.640;-0.752;2022-11-20T11:22:49;6.70;;;1.83;;
38811;SDS011;24553;51.640;-0.752;2022-11-20T11:25:28;5.80;;;2.03;;
38811;SDS011;24553;51.640;-0.752;2022-11-20T11:27:56;5.38;;;0.82;;
38811;SDS011;24553;51.640;-0.752;2022-11-20T11:30:24;11.02;;;1.52;;
38811;SDS011;24553;51.640;-0.752;2022-11-20T11:33:01;11.60;;;1.58;;
38811;SDS011;24553;51.640;-0.752;2022-11-20T11:35:31;8.93;;;1.30;;
38811;SDS011;24553;51.640;-0.752;2022-11-20T11:38:10;15.90;;;3.17;;
38811;SDS011;24553;51.640;-0.752;2022-11-20T11:40:40;9.93;;;1.55;;
38811;SDS011;24553;51.640;-0.752;2022-11-20T11:43:06;11.35;;;2.47;;
38811;SDS011;24553;51.640;-0.752;2022-11-20T11:48:54;10.48;;;0.85;;
38811;SDS011;24553;51.640;-0.752;2022-11-20T11:51:34;7.45;;;1.75;;
38811;SDS011;24553;51.640;-0.752;2022-11-20T11:54:17;8.65;;;1.08;;
38811;SDS011;24553;51.640;-0.752;2022-11-20T11:57:00;2.97;;;0.65;;
38811;SDS011;24553;51.640;-0.752;2022-11-20T12:02:32;26.05;;;2.30;;
38811;SDS011;24553;51.640;-0.752;2022-11-20T12:07:52;11.00;;;3.10;;
38811;SDS011;24553;51.640;-0.752;2022-11-20T12:10:34;12.00;;;1.83;;
38811;SDS011;24553;51.640;-0.752;2022-11-20T12:13:19;10.98;;;1.15;;
38811;SDS011;24553;51.640;-0.752;2022-11-20T12:15:48;8.25;;;2.10;;
38811;SDS011;24553;51.640;-0.752;2022-11-20T12:18:15;10.07;;;3.17;;
38811;SDS011;24553;51.640;-0.752;2022-11-20T12:23:35;17.48;;;1.65;;
38811;SDS011;24553;51.640;-0.752;2022-11-20T12:44:06;11.13;;;1.50;;
38811;SDS011;24553;51.640;-0.752;2022-11-20T12:47:04;11.63;;;0.73;;
38811;SDS011;24553;51.640;-0.752;2022-11-20T12:52:43;9.55;;;1.67;;
38811;SDS011;24553;51.640;-0.752;2022-11-20T12:55:28;8.85;;;1.73;;
38811;SDS011;24553;51.640;-0.752;2022-11-20T12:58:02;6.90;;;0.93;;
38811;SDS011;24553;51.640;-0.752;2022-11-20T13:00:35;5.93;;;2.30;;
38811;SDS011;24553;51.640;-0.752;2022-11-20T13:05:59;10.40;;;0.55;;
38811;SDS011;24553;51.640;-0.752;2022-11-20T13:08:27;8.40;;;1.67;;
38811;SDS011;24553;51.640;-0.752;2022-11-20T13:11:03;27.63;;;2.35;;
38811;SDS011;24553;51.640;-0.752;2022-11-20T13:13:40;7.35;;;1.35;;
38811;SDS011;24553;51.640;-0.752;2022-11-20T13:19:16;6.88;;;0.65;;
38811;SDS011;24553;51.640;-0.752;2022-11-20T13:21:44;11.13;;;2.15;;
38811;SDS011;24553;51.640;-0.752;2022-11-20T13:24:23;6.43;;;1.38;;
38811;SDS011;24553;51.640;-0.752;2022-11-20T13:29:29;7.78;;;0.75;;
38811;SDS011;24553;51.640;-0.752;2022-11-20T13:34:38;8.88;;;0.90;;
38811;SDS011;24553;51.640;-0.752;2022-11-20T13:37:04;5.93;;;0.80;;
38811;SDS011;24553;51.640;-0.752;2022-11-20T13:39:31;15.73;;;3.70;;
38811;SDS011;24553;51.640;-0.752;2022-11-20T13:44:38;8.48;;;1.55;;
38811;SDS011;24553;51.640;-0.752;2022-11-20T13:47:22;8.93;;;1.15;;
38811;SDS011;24553;51.640;-0.752;2022-11-20T13:49:49;9.98;;;1.40;;
38811;SDS011;24553;51.640;-0.752;2022-11-20T13:55:11;9.50;;;1.63;;
38811;SDS011;24553;51.640;-0.752;2022-11-20T14:00:43;9.48;;;1.50;;
38811;SDS011;24553;51.640;-0.752;2022-11-20T14:03:30;9.57;;;1.52;;
38811;SDS011;24553;51.640;-0.752;2022-11-20T14:06:02;9.90;;;1.35;;
38811;SDS011;24553;51.640;-0.752;2022-11-20T14:11:18;11.07;;;1.38;;
38811;SDS011;24553;51.640;-0.752;2022-11-20T14:16:28;16.10;;;2.95;;
38811;SDS011;24553;51.640;-0.752;2022-11-20T14:18:56;8.00;;;1.35;;
38811;SDS011;24553;51.640;-0.752;2022-11-20T14:21:23;17.95;;;1.10;;
38811;SDS011;24553;51.640;-0.752;2022-11-20T14:24:18;8.48;;;1.27;;
38811;SDS011;24553;51.640;-0.752;2022-11-20T14:26:43;8.80;;;1.77;;
38811;SDS011;24553;51.640;-0.752;2022-11-20T14:29:14;4.78;;;1.33;;
38811;SDS011;24553;51.640;-0.752;2022-11-20T14:31:42;8.75;;;0.82;;
38811;SDS011;24553;51.640;-0.752;2022-11-20T14:34:27;4.80;;;0.57;;
38811;SDS011;24553;51.640;-0.752;2022-11-20T14:36:56;5.65;;;1.00;;
38811;SDS011;24553;51.640;-0.752;2022-11-20T14:39:34;5.10;;;0.55;;
38811;SDS011;24553;51.640;-0.752;2022-11-20T14:42:01;9.60;;;0.68;;
38811;SDS011;24553;51.640;-0.752;2022-11-20T14:44:29;5.05;;;1.80;;
38811;SDS011;24553;51.640;-0.752;2022-11-20T14:46:56;11.93;;;1.65;;
38811;SDS011;24553;51.640;-0.752;2022-11-20T14:49:23;4.60;;;0.50;;
38811;SDS011;24553;51.640;-0.752;2022-11-20T14:51:58;6.28;;;0.50;;
38811;SDS011;24553;51.640;-0.752;2022-11-20T14:54:28;7.70;;;0.60;;
38811;SDS011;24553;51.640;-0.752;2022-11-20T14:56:56;7.25;;;1.67;;
38811;SDS011;24553;51.640;-0.752;2022-11-20T14:59:26;12.40;;;1.75;;
38811;SDS011;24553;51.640;-0.752;2022-11-20T15:01:57;6.88;;;0.88;;
38811;SDS011;24553;51.640;-0.752;2022-11-20T15:04:25;16.95;;;1.60;;
38811;SDS011;24553;51.640;-0.752;2022-11-20T15:06:52;6.80;;;2.33;;
38811;SDS011;24553;51.640;-0.752;2022-11-20T15:09:19;4.93;;;1.13;;
38811;SDS011;24553;51.640;-0.752;2022-11-20T15:11:57;6.60;;;1.40;;
38811;SDS011;24553;51.640;-0.752;2022-11-20T15:14:25;8.07;;;1.47;;
38811;SDS011;24553;51.640;-0.752;2022-11-20T15:16:52;6.03;;;1.02;;
38811;SDS011;24553;51.640;-0.752;2022-11-20T15:19:24;7.65;;;0.77;;
38811;SDS011;24553;51.640;-0.752;2022-11-20T15:21:51;8.80;;;3.15;;
38811;SDS011;24553;51.640;-0.752;2022-11-20T15:24:17;7.65;;;2.72;;
38811;SDS011;24553;51.640;-0.752;2022-11-20T15:26:43;5.50;;;0.52;;
38811;SDS011;24553;51.640;-0.752;2022-11-20T15:29:09;2.67;;;0.43;;
38811;SDS011;24553;51.640;-0.752;2022-11-20T15:31:37;3.30;;;0.73;;
38811;SDS011;24553;51.640;-0.752;2022-11-20T15:34:09;2.50;;;1.05;;
38811;SDS011;24553;51.640;-0.752;2022-11-20T15:36:36;5.30;;;2.08;;
38811;SDS011;24553;51.640;-0.752;2022-11-20T15:39:01;8.43;;;1.60;;
38811;SDS011;24553;51.640;-0.752;2022-11-20T15:41:27;5.97;;;0.65;;
38811;SDS011;24553;51.640;-0.752;2022-11-20T15:43:53;6.93;;;2.60;;
38811;SDS011;24553;51.640;-0.752;2022-11-20T15:46:19;5.90;;;2.05;;
38811;SDS011;24553;51.640;-0.752;2022-11-20T15:48:52;5.60;;;0.73;;
38811;SDS011;24553;51.640;-0.752;2022-11-20T15:53:54;3.40;;;0.77;;
38811;SDS011;24553;51.640;-0.752;2022-11-20T15:56:20;2.38;;;0.73;;
38811;SDS011;24553;51.640;-0.752;2022-11-20T15:58:45;4.97;;;0.63;;
38811;SDS011;24553;51.640;-0.752;2022-11-20T16:01:11;3.72;;;0.20;;
38811;SDS011;24553;51.640;-0.752;2022-11-20T16:03:38;5.03;;;1.70;;
38811;SDS011;24553;51.640;-0.752;2022-11-20T16:06:04;11.07;;;4.05;;
38811;SDS011;24553;51.640;-0.752;2022-11-20T16:08:30;16.70;;;5.10;;
38811;SDS011;24553;51.640;-0.752;2022-11-20T16:10:55;14.35;;;5.55;;
38811;SDS011;24553;51.640;-0.752;2022-11-20T16:13:21;8.20;;;3.10;;
38811;SDS011;24553;51.640;-0.752;2022-11-20T16:16:12;8.85;;;2.90;;
38811;SDS011;24553;51.640;-0.752;2022-11-20T16:18:48;9.18;;;2.05;;
38811;SDS011;24553;51.640;-0.752;2022-11-20T16:21:14;2.58;;;1.92;;
38811;SDS011;24553;51.640;-0.752;2022-11-20T16:23:40;2.75;;;1.58;;
38811;SDS011;24553;51.640;-0.752;2022-11-20T16:26:09;3.47;;;0.85;;
38811;SDS011;24553;51.640;-0.752;2022-11-20T16:28:36;5.53;;;1.42;;
38811;SDS011;24553;51.640;-0.752;2022-11-20T16:31:11;1.52;;;0.20;;
38811;SDS011;24553;51.640;-0.752;2022-11-20T16:33:38;6.82;;;1.25;;
38811;SDS011;24553;51.640;-0.752;2022-11-20T16:36:09;2.10;;;0.20;;
38811;SDS011;24553;51.640;-0.752;2022-11-20T16:38:40;2.05;;;0.20;;